Golden Princess — ZCDA9 — position and weather

sailwx.info

Track history (hours):
 
Tides and Currents Weather Stations Pressure Air Temp Water Temp Dewpoint Dewpoint Depression Visibility Wind Speed Wind Dir Waves Ship Positions

Golden Princess

Operator: Princess Cruises

Last reported at 2014-Nov-24 00:33 UTC. Time now 2014-Nov-24 00:45 UTC.
Position N 33°45' W 118°16'.

Length 289.6 m; beam 36 m; draft 8.5 m.

Type: Ship. MMSI: 310344000.

Date/timePositionNaut miles runAvg speedWind from/ knotsBaromVisibWave heightAir tempDewpointWater temp
2014-Nov-24 00:33N 33°45' W 118°16'0 0.2
2014-Nov-23 23:32N 33°45' W 118°17'0 0.0
2014-Nov-23 22:31N 33°45' W 118°17'0 0.0
2014-Nov-23 21:31N 33°45' W 118°17'0 0.0
2014-Nov-23 20:33N 33°45' W 118°17'0 0.0
2014-Nov-23 19:30N 33°45' W 118°17'0 0.0
2014-Nov-23 18:33N 33°45' W 118°17'0 0.0
2014-Nov-23 17:32N 33°45' W 118°17'0 0.0
2014-Nov-23 16:32N 33°45' W 118°17'0 0.0
2014-Nov-23 15:31N 33°45' W 118°17'0 0.0
2014-Nov-23 14:32N 33°45' W 118°17'20 8.4
2014-Nov-23 12:08N 33°27' W 118°06'810.9
2014-Nov-23 11:22N 33°19' W 118°03'1010.8
2014-Nov-23 10:24N 33°09' W 117°58'1011.4
2014-Nov-23 09:33N 33°01' W 117°53'1111.2
2014-Nov-23 08:33N 32°50' W 117°48'1526.8
2014-Nov-23 08:00N 32°36' W 117°42'511.4 300 / 61017.410.8 18.015.521.0
2014-Nov-23 07:33N 32°39' W 117°47'1110.9
2014-Nov-23 06:33N 32°30' W 117°40'1313.0
2014-Nov-23 05:34N 32°19' W 117°32'2913.6
2014-Nov-23 03:24N 32°01' W 117°04'1112.7
2014-Nov-23 02:30N 31°55' W 116°53'61 3.1
2014-Nov-22 07:00N 31°06' W 117°36'92 7.7 340 / 231017.910.8 18.014.621.0
2014-Nov-21 19:00N 31°48' W 119°12'78 8.3 300 / 271016.710.8 18.014.421.0
2014-Nov-21 09:31N 32°26' W 117°51'1010.3
2014-Nov-21 08:32N 32°37' W 117°50'1010.4
2014-Nov-21 07:34N 32°47' W 117°51'3 4.9
2014-Nov-21 07:00N 32°48' W 117°48'1022.2 280 / 211015.810.8 17.514.921.0
2014-Nov-21 06:33N 32°57' W 117°53'1010.1
2014-Nov-21 05:32N 33°06' W 117°59'1010.3
2014-Nov-21 04:33N 33°15' W 118°04'31 9.8
2014-Nov-21 01:26N 33°44' W 118°16'1 1.4
2014-Nov-21 00:33N 33°45' W 118°17'0 0.0
2014-Nov-20 23:32N 33°45' W 118°17'0 0.0
2014-Nov-20 22:32N 33°45' W 118°17'0 0.0
2014-Nov-20 21:31N 33°45' W 118°17'0 0.0
2014-Nov-20 20:31N 33°45' W 118°17'0 0.0
2014-Nov-20 19:33N 33°45' W 118°17'0 0.0
2014-Nov-20 18:33N 33°45' W 118°17'0 0.0
2014-Nov-20 17:33N 33°45' W 118°17'0 0.0
2014-Nov-20 16:29N 33°45' W 118°17'0 0.0
2014-Nov-20 15:32N 33°45' W 118°17'0 0.0
2014-Nov-20 14:28N 33°45' W 118°17'9 6.6
2014-Nov-20 13:09N 33°37' W 118°11'811.1
2014-Nov-20 12:27N 33°30' W 118°08'1430.6
2014-Nov-20 12:00N 33°18' W 118°00'4 7.8 290 / 101022.210.8 17.813.820.0
2014-Nov-20 11:29N 33°21' W 118°03'1110.8
2014-Nov-20 10:29N 33°11' W 117°59'910.1
2014-Nov-20 09:33N 33°02' W 117°54'1110.6
2014-Nov-20 08:33N 32°53' W 117°49'1221.3
2014-Nov-20 08:00N 32°42' W 117°42'4 9.9 310 / 101019.910.8 18.014.621.0
2014-Nov-20 07:33N 32°42' W 117°47'1110.7
2014-Nov-20 06:33N 32°32' W 117°42'1615.4
2014-Nov-20 05:33N 32°19' W 117°32'1513.9
2014-Nov-20 04:30N 32°10' W 117°19'1213.1
2014-Nov-20 03:33N 32°02' W 117°07'1312.8
2014-Nov-20 02:33N 31°56' W 116°54'11 0.9
2014-Nov-19 14:12N 31°46' W 116°48'710.9
2014-Nov-19 13:34N 31°43' W 116°55'1110.5
2014-Nov-19 12:33N 31°39' W 117°07'1730.9
2014-Nov-19 12:00N 31°24' W 117°18'6 3.5 310 / 41023.210.8 17.015.321.0
2014-Nov-19 10:25N 31°24' W 117°24'910.1
2014-Nov-19 09:33N 31°15' W 117°23'19 8.7
2014-Nov-19 07:23N 30°58' W 117°33'512.8
2014-Nov-19 07:00N 30°54' W 117°30'3413.7 060 / 21020.310.8 17.515.821.0
2014-Nov-19 04:29N 31°06' W 118°07'1010.3
2014-Nov-19 03:32N 31°06' W 118°19'1010.4
2014-Nov-19 02:33N 31°06' W 118°31'1010.3
2014-Nov-19 01:33N 31°06' W 118°43'1010.4
2014-Nov-19 00:33N 31°06' W 118°55'1110.2
2014-Nov-18 23:29N 31°06' W 119°08'4 7.6
2014-Nov-18 23:00N 31°06' W 119°12'816.0 180 / 81022.810.8 19.015.320.0
2014-Nov-18 22:28N 31°14' W 119°12'9 9.6
2014-Nov-18 21:30N 31°24' W 119°12'9 9.5
2014-Nov-18 20:33N 31°33' W 119°12'20 9.8
2014-Nov-18 18:33N 31°52' W 119°12'9 9.4
2014-Nov-18 17:33N 32°01' W 119°10'20 9.9
2014-Nov-18 15:33N 32°02' W 118°47'1010.0
2014-Nov-18 14:33N 32°02' W 118°35'1110.0
2014-Nov-18 13:29N 32°02' W 118°22'910.1
2014-Nov-18 12:33N 32°02' W 118°11'1526.6
2014-Nov-18 12:00N 32°06' W 117°54'613.7 070 / 81022.010.8 19.011.820.0
2014-Nov-18 11:34N 32°05' W 118°01'1010.2
2014-Nov-18 10:33N 32°15' W 117°57'1010.2
2014-Nov-18 09:33N 32°24' W 117°52'1010.1
2014-Nov-18 08:33N 32°34' W 117°48'10 9.9
2014-Nov-18 07:34N 32°44' W 117°48'2 2.7
2014-Nov-18 07:00N 32°42' W 117°48'1226.9 100 / 101018.910.8 18.514.221.0
2014-Nov-18 06:34N 32°54' W 117°49'1010.2
2014-Nov-18 05:33N 33°02' W 117°56'1010.1
2014-Nov-18 04:33N 33°11' W 118°02'1010.2
2014-Nov-18 03:33N 33°20' W 118°07'1010.3
2014-Nov-18 02:33N 33°30' W 118°11'1010.3
2014-Nov-18 01:34N 33°40' W 118°15'5 5.2
2014-Nov-18 00:31N 33°45' W 118°17'0 0.0
2014-Nov-17 23:31N 33°45' W 118°17'0 0.0
2014-Nov-17 22:28N 33°45' W 118°17'0 0.0
2014-Nov-17 21:33N 33°45' W 118°17'0 0.0
2014-Nov-17 20:33N 33°45' W 118°17'0 0.0
2014-Nov-17 19:29N 33°45' W 118°17'0 0.0
2014-Nov-17 14:33N 33°45' W 118°17'5 4.9
2014-Nov-17 13:34N 33°41' W 118°13'1110.7
2014-Nov-17 12:33N 33°31' W 118°08'2035.7
2014-Nov-17 12:00N 33°12' W 118°00'921.7 060 / 81022.210.8 18.516.921.0
2014-Nov-17 11:33N 33°21' W 118°03'1111.1
2014-Nov-17 10:34N 33°11' W 117°58'1111.2
2014-Nov-17 09:33N 33°01' W 117°51'1212.2
2014-Nov-17 08:33N 32°49' W 117°48'1212.4
2014-Nov-17 07:33N 32°37' W 117°46'813.8
2014-Nov-17 07:00N 32°30' W 117°42'510.6 090 / 121020.510.8 18.510.121.0
2014-Nov-17 06:33N 32°27' W 117°38'1312.2
2014-Nov-17 05:30N 32°17' W 117°29'1312.2
2014-Nov-17 04:27N 32°08' W 117°17'32 2.0
2014-Nov-16 12:00N 31°36' W 117°18'30 7.5 300 / 191020.310.8 18.014.620.0
2014-Nov-16 08:00N 31°06' W 117°18'8710.9 270 / 211018.110.8 18.014.621.0
2014-Nov-16 00:00N 31°06' W 119°00'32 7.9 270 / 231019.010.8 18.214.820.0
2014-Nov-15 20:00N 31°36' W 119°12'66 8.2 040 / 101019.010.8 18.014.621.0
2014-Nov-15 12:00N 32°00' W 118°00'6 7.1 040 / 101020.010.8 18.014.621.0
2014-Nov-15 11:10N 32°06' W 118°01'1794.7
2014-Nov-15 11:00N 32°12' W 117°42'14 9.1 360 / 101019.710.8 18.014.621.0
2014-Nov-15 09:30N 32°21' W 117°54'910.0
2014-Nov-15 08:33N 32°30' W 117°50'610.5
2014-Nov-15 08:00N 32°36' W 117°48'510.8 340 / 81017.010.8 18.014.621.0
2014-Nov-15 07:34N 32°40' W 117°50'10 9.9
2014-Nov-15 06:34N 32°50' W 117°50'10 9.9
2014-Nov-15 05:33N 32°60' W 117°53'1010.1
2014-Nov-15 04:34N 33°09' W 117°59'712.2
2014-Nov-15 04:00N 33°12' W 118°06'511.5 050 / 21015.910.8 18.016.321.0
2014-Nov-15 03:34N 33°17' W 118°06'2210.3
2014-Nov-15 01:25N 33°38' W 118°14'7 8.1
2014-Nov-15 00:31N 33°45' W 118°16'0 0.3
2014-Nov-14 23:31N 33°45' W 118°17'0 0.0
2014-Nov-14 22:31N 33°45' W 118°17'0 0.0
2014-Nov-14 21:33N 33°45' W 118°17'0 0.0
2014-Nov-14 20:33N 33°45' W 118°17'0 0.0
2014-Nov-14 19:33N 33°45' W 118°17'0 0.0
2014-Nov-14 18:32N 33°45' W 118°17'0 0.0
2014-Nov-14 17:32N 33°45' W 118°17'0 0.0
2014-Nov-14 16:31N 33°45' W 118°17'0 0.0
2014-Nov-14 15:31N 33°45' W 118°17'0 0.0
2014-Nov-14 14:33N 33°45' W 118°17'16 8.0
2014-Nov-14 12:33N 33°31' W 118°08'1425.2
2014-Nov-14 12:00N 33°18' W 118°00'3 6.2 270 / 101019.810.8 18.416.421.0
2014-Nov-14 11:31N 33°20' W 118°03'1111.0
2014-Nov-14 10:32N 33°10' W 117°57'1111.2
2014-Nov-14 09:33N 33°00' W 117°52'1111.2
2014-Nov-14 08:33N 32°49' W 117°48'1425.3
2014-Nov-14 08:00N 32°36' W 117°42'4 8.6 090 / 61016.9 5.4 17.516.721.0
2014-Nov-14 07:33N 32°38' W 117°45'1111.1
2014-Nov-14 06:33N 32°29' W 117°39'1412.9
2014-Nov-14 05:26N 32°17' W 117°29'  
Track history (hours):
 
Tides and Currents Weather Stations Pressure Air Temp Water Temp Dewpoint Dewpoint Depression Visibility Wind Speed Wind Dir Waves Ship Positions

Golden Princess

Operator: Princess Cruises

Last reported at 2014-Nov-24 00:33 UTC. Time now 2014-Nov-24 00:45 UTC.
Position N 33°45' W 118°16'.

Length 289.6 m; beam 36 m; draft 8.5 m.

Type: Ship. MMSI: 310344000.

Date/timePositionNaut miles runAvg speedWind from/ knotsBaromVisibWave heightAir tempDewpointWater temp
2014-Nov-24 00:33N 33°45' W 118°16'0 0.2
2014-Nov-23 23:32N 33°45' W 118°17'0 0.0
2014-Nov-23 22:31N 33°45' W 118°17'0 0.0
2014-Nov-23 21:31N 33°45' W 118°17'0 0.0
2014-Nov-23 20:33N 33°45' W 118°17'0 0.0
2014-Nov-23 19:30N 33°45' W 118°17'0 0.0
2014-Nov-23 18:33N 33°45' W 118°17'0 0.0
2014-Nov-23 17:32N 33°45' W 118°17'0 0.0
2014-Nov-23 16:32N 33°45' W 118°17'0 0.0
2014-Nov-23 15:31N 33°45' W 118°17'0 0.0
2014-Nov-23 14:32N 33°45' W 118°17'20 8.4
2014-Nov-23 12:08N 33°27' W 118°06'810.9
2014-Nov-23 11:22N 33°19' W 118°03'1010.8
2014-Nov-23 10:24N 33°09' W 117°58'1011.4
2014-Nov-23 09:33N 33°01' W 117°53'1111.2
2014-Nov-23 08:33N 32°50' W 117°48'1526.8
2014-Nov-23 08:00N 32°36' W 117°42'511.4 300 / 61017.410.8 18.015.521.0
2014-Nov-23 07:33N 32°39' W 117°47'1110.9
2014-Nov-23 06:33N 32°30' W 117°40'1313.0
2014-Nov-23 05:34N 32°19' W 117°32'2913.6
2014-Nov-23 03:24N 32°01' W 117°04'1112.7
2014-Nov-23 02:30N 31°55' W 116°53'61 3.1
2014-Nov-22 07:00N 31°06' W 117°36'92 7.7 340 / 231017.910.8 18.014.621.0
2014-Nov-21 19:00N 31°48' W 119°12'78 8.3 300 / 271016.710.8 18.014.421.0
2014-Nov-21 09:31N 32°26' W 117°51'1010.3
2014-Nov-21 08:32N 32°37' W 117°50'1010.4
2014-Nov-21 07:34N 32°47' W 117°51'3 4.9
2014-Nov-21 07:00N 32°48' W 117°48'1022.2 280 / 211015.810.8 17.514.921.0
2014-Nov-21 06:33N 32°57' W 117°53'1010.1
2014-Nov-21 05:32N 33°06' W 117°59'1010.3
2014-Nov-21 04:33N 33°15' W 118°04'31 9.8
2014-Nov-21 01:26N 33°44' W 118°16'1 1.4
2014-Nov-21 00:33N 33°45' W 118°17'0 0.0
2014-Nov-20 23:32N 33°45' W 118°17'0 0.0
2014-Nov-20 22:32N 33°45' W 118°17'0 0.0
2014-Nov-20 21:31N 33°45' W 118°17'0 0.0
2014-Nov-20 20:31N 33°45' W 118°17'0 0.0
2014-Nov-20 19:33N 33°45' W 118°17'0 0.0
2014-Nov-20 18:33N 33°45' W 118°17'0 0.0
2014-Nov-20 17:33N 33°45' W 118°17'0 0.0
2014-Nov-20 16:29N 33°45' W 118°17'0 0.0
2014-Nov-20 15:32N 33°45' W 118°17'0 0.0
2014-Nov-20 14:28N 33°45' W 118°17'9 6.6
2014-Nov-20 13:09N 33°37' W 118°11'811.1
2014-Nov-20 12:27N 33°30' W 118°08'1430.6
2014-Nov-20 12:00N 33°18' W 118°00'4 7.8 290 / 101022.210.8 17.813.820.0
2014-Nov-20 11:29N 33°21' W 118°03'1110.8
2014-Nov-20 10:29N 33°11' W 117°59'910.1
2014-Nov-20 09:33N 33°02' W 117°54'1110.6
2014-Nov-20 08:33N 32°53' W 117°49'1221.3
2014-Nov-20 08:00N 32°42' W 117°42'4 9.9 310 / 101019.910.8 18.014.621.0
2014-Nov-20 07:33N 32°42' W 117°47'1110.7
2014-Nov-20 06:33N 32°32' W 117°42'1615.4
2014-Nov-20 05:33N 32°19' W 117°32'1513.9
2014-Nov-20 04:30N 32°10' W 117°19'1213.1
2014-Nov-20 03:33N 32°02' W 117°07'1312.8
2014-Nov-20 02:33N 31°56' W 116°54'11 0.9
2014-Nov-19 14:12N 31°46' W 116°48'710.9
2014-Nov-19 13:34N 31°43' W 116°55'1110.5
2014-Nov-19 12:33N 31°39' W 117°07'1730.9
2014-Nov-19 12:00N 31°24' W 117°18'6 3.5 310 / 41023.210.8 17.015.321.0
2014-Nov-19 10:25N 31°24' W 117°24'910.1
2014-Nov-19 09:33N 31°15' W 117°23'19 8.7
2014-Nov-19 07:23N 30°58' W 117°33'512.8
2014-Nov-19 07:00N 30°54' W 117°30'3413.7 060 / 21020.310.8 17.515.821.0
2014-Nov-19 04:29N 31°06' W 118°07'1010.3
2014-Nov-19 03:32N 31°06' W 118°19'1010.4
2014-Nov-19 02:33N 31°06' W 118°31'1010.3
2014-Nov-19 01:33N 31°06' W 118°43'1010.4
2014-Nov-19 00:33N 31°06' W 118°55'1110.2
2014-Nov-18 23:29N 31°06' W 119°08'4 7.6
2014-Nov-18 23:00N 31°06' W 119°12'816.0 180 / 81022.810.8 19.015.320.0
2014-Nov-18 22:28N 31°14' W 119°12'9 9.6
2014-Nov-18 21:30N 31°24' W 119°12'9 9.5
2014-Nov-18 20:33N 31°33' W 119°12'20 9.8
2014-Nov-18 18:33N 31°52' W 119°12'9 9.4
2014-Nov-18 17:33N 32°01' W 119°10'20 9.9
2014-Nov-18 15:33N 32°02' W 118°47'1010.0
2014-Nov-18 14:33N 32°02' W 118°35'1110.0
2014-Nov-18 13:29N 32°02' W 118°22'910.1
2014-Nov-18 12:33N 32°02' W 118°11'1526.6
2014-Nov-18 12:00N 32°06' W 117°54'613.7 070 / 81022.010.8 19.011.820.0
2014-Nov-18 11:34N 32°05' W 118°01'1010.2
2014-Nov-18 10:33N 32°15' W 117°57'1010.2
2014-Nov-18 09:33N 32°24' W 117°52'1010.1
2014-Nov-18 08:33N 32°34' W 117°48'10 9.9
2014-Nov-18 07:34N 32°44' W 117°48'2 2.7
2014-Nov-18 07:00N 32°42' W 117°48'1226.9 100 / 101018.910.8 18.514.221.0
2014-Nov-18 06:34N 32°54' W 117°49'1010.2
2014-Nov-18 05:33N 33°02' W 117°56'1010.1
2014-Nov-18 04:33N 33°11' W 118°02'1010.2
2014-Nov-18 03:33N 33°20' W 118°07'1010.3
2014-Nov-18 02:33N 33°30' W 118°11'1010.3
2014-Nov-18 01:34N 33°40' W 118°15'5 5.2
2014-Nov-18 00:31N 33°45' W 118°17'0 0.0
2014-Nov-17 23:31N 33°45' W 118°17'0 0.0
2014-Nov-17 22:28N 33°45' W 118°17'0 0.0
2014-Nov-17 21:33N 33°45' W 118°17'0 0.0
2014-Nov-17 20:33N 33°45' W 118°17'0 0.0
2014-Nov-17 19:29N 33°45' W 118°17'0 0.0
2014-Nov-17 14:33N 33°45' W 118°17'5 4.9
2014-Nov-17 13:34N 33°41' W 118°13'1110.7
2014-Nov-17 12:33N 33°31' W 118°08'2035.7
2014-Nov-17 12:00N 33°12' W 118°00'921.7 060 / 81022.210.8 18.516.921.0
2014-Nov-17 11:33N 33°21' W 118°03'1111.1
2014-Nov-17 10:34N 33°11' W 117°58'1111.2
2014-Nov-17 09:33N 33°01' W 117°51'1212.2
2014-Nov-17 08:33N 32°49' W 117°48'1212.4
2014-Nov-17 07:33N 32°37' W 117°46'813.8
2014-Nov-17 07:00N 32°30' W 117°42'510.6 090 / 121020.510.8 18.510.121.0
2014-Nov-17 06:33N 32°27' W 117°38'1312.2
2014-Nov-17 05:30N 32°17' W 117°29'1312.2
2014-Nov-17 04:27N 32°08' W 117°17'32 2.0
2014-Nov-16 12:00N 31°36' W 117°18'30 7.5 300 / 191020.310.8 18.014.620.0
2014-Nov-16 08:00N 31°06' W 117°18'8710.9 270 / 211018.110.8 18.014.621.0
2014-Nov-16 00:00N 31°06' W 119°00'32 7.9 270 / 231019.010.8 18.214.820.0
2014-Nov-15 20:00N 31°36' W 119°12'66 8.2 040 / 101019.010.8 18.014.621.0
2014-Nov-15 12:00N 32°00' W 118°00'6 7.1 040 / 101020.010.8 18.014.621.0
2014-Nov-15 11:10N 32°06' W 118°01'1794.7
2014-Nov-15 11:00N 32°12' W 117°42'14 9.1 360 / 101019.710.8 18.014.621.0
2014-Nov-15 09:30N 32°21' W 117°54'910.0
2014-Nov-15 08:33N 32°30' W 117°50'610.5
2014-Nov-15 08:00N 32°36' W 117°48'510.8 340 / 81017.010.8 18.014.621.0
2014-Nov-15 07:34N 32°40' W 117°50'10 9.9
2014-Nov-15 06:34N 32°50' W 117°50'10 9.9
2014-Nov-15 05:33N 32°60' W 117°53'1010.1
2014-Nov-15 04:34N 33°09' W 117°59'712.2
2014-Nov-15 04:00N 33°12' W 118°06'511.5 050 / 21015.910.8 18.016.321.0
2014-Nov-15 03:34N 33°17' W 118°06'2210.3
2014-Nov-15 01:25N 33°38' W 118°14'7 8.1
2014-Nov-15 00:31N 33°45' W 118°16'0 0.3
2014-Nov-14 23:31N 33°45' W 118°17'0 0.0
2014-Nov-14 22:31N 33°45' W 118°17'0 0.0
2014-Nov-14 21:33N 33°45' W 118°17'0 0.0
2014-Nov-14 20:33N 33°45' W 118°17'0 0.0
2014-Nov-14 19:33N 33°45' W 118°17'0 0.0
2014-Nov-14 18:32N 33°45' W 118°17'0 0.0
2014-Nov-14 17:32N 33°45' W 118°17'0 0.0
2014-Nov-14 16:31N 33°45' W 118°17'0 0.0
2014-Nov-14 15:31N 33°45' W 118°17'0 0.0
2014-Nov-14 14:33N 33°45' W 118°17'16 8.0
2014-Nov-14 12:33N 33°31' W 118°08'1425.2
2014-Nov-14 12:00N 33°18' W 118°00'3 6.2 270 / 101019.810.8 18.416.421.0
2014-Nov-14 11:31N 33°20' W 118°03'1111.0
2014-Nov-14 10:32N 33°10' W 117°57'1111.2
2014-Nov-14 09:33N 33°00' W 117°52'1111.2
2014-Nov-14 08:33N 32°49' W 117°48'1425.3
2014-Nov-14 08:00N 32°36' W 117°42'4 8.6 090 / 61016.9 5.4 17.516.721.0
2014-Nov-14 07:33N 32°38' W 117°45'1111.1
2014-Nov-14 06:33N 32°29' W 117°39'1412.9
2014-Nov-14 05:26N 32°17' W 117°29'  

Dump ship's entire track history